createdAt,value
2022-10-16T07:41:15.475Z,68.00
2022-10-16T07:43:47.470Z,67.10
2022-10-16T07:46:15.059Z,65.40
2022-10-16T07:48:41.849Z,63.20
2022-10-16T07:51:08.598Z,62.10
2022-10-16T07:53:35.346Z,61.90
2022-10-16T07:56:03.384Z,60.30
2022-10-16T07:58:30.707Z,59.90
2022-10-16T08:00:57.702Z,60.70
2022-10-16T08:03:24.880Z,58.40
2022-10-16T08:05:51.713Z,58.70
2022-10-16T08:08:19.051Z,59.00
2022-10-16T08:10:46.259Z,56.80
2022-10-16T08:13:16.236Z,56.70
2022-10-16T08:15:43.826Z,55.80
2022-10-16T08:18:12.270Z,54.60
2022-10-16T08:20:39.850Z,54.40
2022-10-16T08:23:06.671Z,54.60
2022-10-16T08:25:35.553Z,55.40
2022-10-16T08:28:03.980Z,54.20
2022-10-16T08:30:30.688Z,53.60
2022-10-16T08:32:59.091Z,52.50
2022-10-16T08:35:25.882Z,52.00
2022-10-16T08:37:52.682Z,53.00
2022-10-16T08:40:20.794Z,52.00
2022-10-16T08:42:56.526Z,51.50
2022-10-16T08:45:23.189Z,50.70
2022-10-16T08:47:53.310Z,50.60
2022-10-16T08:50:24.987Z,50.90
2022-10-16T08:52:51.977Z,50.00
2022-10-16T08:55:21.705Z,49.60
2022-10-16T08:57:48.383Z,48.90
2022-10-16T09:00:15.793Z,49.80
2022-10-16T09:02:49.701Z,50.10
2022-10-16T09:05:16.391Z,48.70
2022-10-16T09:07:43.073Z,48.60
2022-10-16T09:10:28.568Z,49.30
2022-10-16T09:13:10.450Z,48.60
2022-10-16T09:15:40.184Z,47.70
2022-10-16T09:18:29.955Z,48.00
2022-10-16T09:21:08.609Z,48.50
2022-10-16T09:23:38.793Z,47.70
2022-10-16T09:26:10.487Z,46.70
2022-10-16T09:28:37.401Z,46.90
2022-10-16T09:31:04.186Z,48.80
2022-10-16T09:33:33.962Z,47.00
2022-10-16T09:36:00.676Z,46.00
2022-10-16T09:38:28.961Z,46.50
2022-10-16T09:41:02.366Z,47.60
2022-10-16T09:43:36.082Z,48.30
2022-10-16T09:46:02.858Z,46.80
2022-10-16T09:48:34.767Z,46.40
2022-10-16T09:51:02.781Z,45.20
2022-10-16T09:53:45.783Z,45.90
2022-10-16T09:56:14.922Z,45.80
2022-10-16T09:58:50.263Z,47.20
2022-10-16T10:01:17.011Z,45.90
2022-10-16T10:03:44.582Z,45.00
2022-10-16T10:06:19.405Z,45.90
2022-10-16T10:08:56.844Z,45.20
2022-10-16T10:11:42.035Z,45.50
2022-10-16T10:14:17.836Z,45.80
2022-10-16T10:16:45.480Z,45.80
2022-10-16T10:19:22.782Z,44.90
2022-10-16T10:21:51.230Z,44.80
2022-10-16T10:24:19.483Z,45.50
2022-10-16T10:27:00.986Z,45.60
2022-10-16T10:29:43.455Z,45.60
2022-10-16T10:32:28.635Z,45.90
2022-10-16T10:35:15.682Z,45.50
2022-10-16T10:37:51.167Z,44.50
2022-10-16T10:40:30.401Z,44.30
2022-10-16T10:43:16.072Z,44.40
2022-10-16T10:45:52.403Z,44.20
2022-10-16T10:48:49.346Z,43.40
2022-10-16T10:51:22.546Z,43.70
2022-10-16T10:53:55.268Z,45.10
2022-10-16T10:56:40.515Z,46.60
2022-10-16T10:59:07.366Z,46.60
2022-10-16T11:01:34.082Z,47.00
2022-10-16T11:04:10.025Z,46.00
2022-10-16T11:06:40.748Z,47.10
2022-10-16T11:09:13.534Z,46.20
2022-10-16T11:11:46.319Z,46.30
2022-10-16T11:14:16.030Z,45.70
2022-10-16T11:16:57.803Z,45.80
2022-10-16T11:19:40.909Z,46.40
2022-10-16T11:22:20.573Z,46.60
2022-10-16T11:25:01.076Z,45.60
2022-10-16T11:27:32.966Z,45.40
2022-10-16T11:30:02.081Z,44.60
2022-10-16T11:32:32.921Z,44.90
2022-10-16T11:35:03.178Z,45.10
2022-10-16T11:37:39.296Z,45.50
2022-10-16T11:40:27.060Z,46.60
2022-10-16T11:42:58.158Z,46.90
2022-10-16T11:45:35.442Z,47.90
2022-10-16T11:48:22.646Z,47.40
2022-10-16T11:51:04.661Z,46.90
2022-10-16T11:53:44.490Z,47.10
2022-10-16T11:56:21.475Z,47.30
2022-10-16T11:58:49.669Z,46.50
2022-10-16T12:01:19.471Z,46.10
2022-10-16T12:03:52.505Z,46.50
2022-10-16T12:06:26.281Z,46.00
2022-10-16T12:08:54.779Z,47.60
2022-10-16T12:11:40.608Z,47.30
2022-10-16T12:14:13.933Z,45.60
2022-10-16T12:17:01.052Z,46.30
2022-10-16T12:19:29.608Z,46.90
2022-10-16T12:21:59.926Z,46.40
2022-10-16T12:24:35.872Z,45.60
2022-10-16T12:27:02.923Z,45.80
2022-10-16T12:29:29.636Z,45.90
2022-10-16T12:31:58.522Z,46.10
2022-10-16T12:34:43.007Z,45.20
2022-10-16T12:37:15.461Z,46.20
2022-10-16T12:39:43.864Z,46.70
2022-10-16T12:42:25.100Z,47.10
2022-10-16T12:44:52.208Z,47.70
2022-10-16T12:47:36.590Z,49.20
2022-10-16T12:50:09.059Z,48.60
2022-10-16T12:52:39.120Z,49.40
2022-10-16T12:55:06.986Z,49.70
2022-10-16T12:57:39.449Z,49.90
2022-10-16T13:00:06.520Z,50.00
2022-10-16T13:02:39.091Z,49.30
2022-10-16T13:05:05.829Z,49.80
2022-10-16T13:07:32.494Z,50.50
2022-10-16T13:09:59.203Z,48.80
2022-10-16T13:13:01.454Z,49.40
2022-10-16T13:15:46.186Z,49.20
2022-10-16T13:18:31.930Z,47.20
2022-10-16T13:21:05.159Z,45.90
2022-10-16T13:23:36.978Z,44.90
2022-10-16T13:26:07.097Z,43.60
2022-10-16T13:28:35.881Z,44.60
2022-10-16T13:31:03.710Z,45.90
2022-10-16T13:33:33.780Z,46.10
2022-10-16T13:36:01.057Z,47.50
2022-10-16T13:38:33.326Z,47.90
2022-10-16T13:41:01.695Z,48.70
2022-10-16T13:43:34.877Z,49.50
2022-10-16T13:46:02.988Z,49.50
2022-10-16T13:48:30.574Z,49.70
2022-10-16T13:54:12.652Z,51.30
2022-10-16T13:56:40.453Z,52.40
2022-10-16T13:59:23.350Z,52.30
2022-10-16T14:01:52.055Z,51.50
2022-10-16T14:04:19.290Z,50.80
2022-10-16T14:06:47.665Z,51.50
2022-10-16T14:09:21.317Z,51.20
2022-10-16T14:11:59.145Z,52.00
2022-10-16T14:14:28.019Z,54.30
2022-10-16T14:16:55.256Z,51.90
2022-10-16T14:19:25.043Z,52.90
2022-10-16T14:21:52.919Z,53.10
2022-10-16T14:24:27.595Z,55.40
2022-10-16T14:26:57.485Z,55.70
2022-10-16T14:29:25.436Z,53.30
2022-10-16T14:31:59.697Z,53.90
2022-10-16T14:34:33.883Z,55.30
2022-10-16T14:37:05.731Z,54.90
2022-10-16T14:39:35.681Z,54.70
2022-10-16T14:42:02.576Z,54.40
2022-10-16T14:44:32.266Z,55.10
2022-10-16T14:47:00.781Z,56.50
2022-10-16T14:49:29.238Z,58.40
2022-10-16T14:51:56.610Z,59.00
2022-10-16T14:54:23.436Z,58.60
2022-10-16T14:57:00.131Z,57.30
2022-10-16T14:59:40.382Z,57.20
2022-10-16T15:02:17.312Z,56.60
2022-10-16T15:04:44.291Z,59.20
2022-10-16T15:07:11.182Z,59.50
2022-10-16T15:09:38.067Z,61.70
2022-10-16T15:12:05.231Z,60.80
2022-10-16T15:14:32.160Z,61.90
2022-10-16T15:16:59.112Z,62.50
2022-10-16T15:19:26.129Z,63.20
2022-10-16T15:21:53.473Z,63.00
2022-10-16T15:24:21.710Z,63.00
2022-10-16T15:26:48.640Z,62.90
2022-10-16T15:29:15.569Z,62.90
2022-10-16T15:31:43.844Z,62.10
2022-10-16T15:34:11.154Z,62.70
2022-10-16T15:36:39.306Z,64.40
2022-10-16T15:39:17.088Z,65.00
2022-10-16T15:41:44.467Z,64.10
2022-10-16T15:44:11.761Z,65.30
2022-10-16T15:46:39.230Z,66.50
2022-10-16T15:49:06.222Z,65.60
2022-10-16T15:51:34.209Z,64.10
2022-10-16T15:54:02.958Z,63.70
2022-10-16T15:56:34.107Z,64.20
2022-10-16T15:59:02.366Z,64.60
2022-10-16T16:01:30.550Z,65.30
2022-10-16T16:03:57.911Z,66.50
2022-10-16T16:06:25.043Z,65.80
2022-10-16T16:08:52.606Z,64.60
2022-10-16T16:11:19.528Z,64.20
2022-10-16T16:13:46.472Z,64.50
2022-10-16T16:16:14.839Z,64.70
2022-10-16T16:18:42.399Z,64.90
2022-10-16T16:21:10.673Z,66.20
2022-10-16T16:23:37.725Z,66.40
2022-10-16T16:26:07.615Z,66.60
2022-10-16T16:28:34.754Z,66.60
2022-10-16T16:31:01.655Z,65.90
2022-10-16T16:33:28.630Z,66.10
2022-10-16T16:36:01.043Z,67.20
2022-10-16T16:38:28.681Z,67.50
2022-10-16T16:40:56.487Z,67.50
2022-10-16T16:43:24.511Z,68.00
2022-10-16T16:45:51.920Z,68.70
2022-10-16T16:48:18.849Z,69.10
2022-10-16T16:50:45.617Z,69.70
2022-10-16T16:53:12.300Z,69.80
2022-10-16T16:55:39.174Z,69.70
2022-10-16T16:58:05.989Z,69.60
2022-10-16T17:00:32.855Z,69.70
2022-10-16T17:03:00.228Z,70.30
2022-10-16T17:05:30.177Z,70.70
2022-10-16T17:07:56.918Z,70.40
2022-10-16T17:10:23.662Z,70.30
2022-10-16T17:12:50.520Z,70.50
2022-10-16T17:15:17.246Z,70.70
2022-10-16T17:17:44.054Z,70.20
2022-10-16T17:20:11.418Z,69.50
2022-10-16T17:22:38.829Z,70.00
2022-10-16T17:25:07.892Z,70.30
2022-10-16T17:27:36.434Z,70.70
2022-10-16T17:30:04.712Z,71.20
2022-10-16T17:32:31.633Z,71.60
2022-10-16T17:34:58.390Z,71.70
2022-10-16T17:37:25.240Z,72.30
2022-10-16T17:39:52.577Z,72.80
2022-10-16T17:42:19.413Z,72.10
2022-10-16T17:44:46.428Z,71.70
2022-10-16T17:47:13.166Z,71.90
2022-10-16T17:49:39.983Z,71.80
2022-10-16T17:52:07.272Z,71.80
2022-10-16T17:54:34.495Z,72.00
2022-10-16T17:57:01.232Z,71.90
2022-10-16T17:59:29.338Z,71.00
2022-10-16T18:01:56.310Z,71.10
2022-10-16T18:04:23.158Z,70.80
2022-10-16T18:06:49.965Z,71.60
2022-10-16T18:09:18.270Z,71.50
2022-10-16T18:11:45.295Z,70.70
2022-10-16T18:14:13.346Z,70.20
2022-10-16T18:16:40.080Z,70.60
2022-10-16T18:19:07.452Z,70.50
2022-10-16T18:21:34.178Z,69.50
2022-10-16T18:24:01.886Z,69.30
2022-10-16T18:26:28.820Z,69.20
2022-10-16T18:28:56.670Z,68.90
2022-10-16T18:31:23.905Z,68.10
2022-10-16T18:33:51.453Z,66.60
2022-10-16T18:36:19.888Z,67.70
2022-10-16T18:38:46.605Z,68.40
2022-10-16T18:41:13.882Z,68.30
2022-10-16T18:43:41.504Z,67.70
2022-10-16T18:46:09.866Z,67.90
2022-10-16T18:48:37.866Z,67.50
2022-10-16T18:51:08.394Z,67.60
2022-10-16T18:53:35.573Z,68.10
2022-10-16T18:56:02.645Z,68.40
2022-10-16T18:58:29.494Z,68.50
2022-10-16T19:00:56.158Z,66.40
2022-10-16T19:03:23.234Z,67.10
2022-10-16T19:05:49.970Z,67.90
2022-10-16T19:08:16.741Z,68.50
2022-10-16T19:10:43.552Z,69.30
2022-10-16T19:13:11.094Z,70.10
2022-10-16T19:15:41.700Z,70.70
2022-10-16T19:18:08.546Z,71.80
2022-10-16T19:20:35.243Z,72.80
2022-10-16T19:23:02.523Z,73.50
2022-10-16T19:25:29.278Z,74.10
2022-10-16T19:27:56.727Z,74.50
2022-10-16T19:30:24.175Z,74.90
2022-10-16T19:32:52.971Z,75.20
2022-10-16T19:35:19.982Z,75.50
2022-10-16T19:37:49.702Z,75.80
2022-10-16T19:40:16.448Z,76.00
2022-10-16T19:42:45.193Z,76.30
2022-10-16T19:45:11.979Z,76.50
